createdAt,value
2023-04-16T00:01:02.783Z,34.47
2023-04-16T00:03:29.658Z,36.40
2023-04-16T00:05:56.781Z,39.33
2023-04-16T00:08:24.732Z,43.85
2023-04-16T00:10:52.989Z,36.47
2023-04-16T00:13:19.851Z,31.30
2023-04-16T00:15:46.402Z,29.80
2023-04-16T00:18:15.680Z,27.33
2023-04-16T00:20:42.400Z,39.13
2023-04-16T00:23:08.974Z,43.17
2023-04-16T00:25:35.473Z,43.10
2023-04-16T00:28:02.047Z,46.42
2023-04-16T00:30:28.629Z,62.53
2023-04-16T00:32:55.288Z,47.53
2023-04-16T00:35:22.008Z,36.13
2023-04-16T00:37:48.724Z,38.22
2023-04-16T00:40:15.284Z,31.67
2023-04-16T00:42:41.810Z,32.88
2023-04-16T00:45:09.589Z,32.63
2023-04-16T00:47:36.203Z,33.05
2023-04-16T00:50:04.421Z,30.85
2023-04-16T00:52:34.668Z,25.23
2023-04-16T00:55:01.305Z,30.85
2023-04-16T00:57:27.938Z,30.95
2023-04-16T00:59:54.832Z,30.27
2023-04-16T01:02:21.589Z,31.48
2023-04-16T01:04:51.595Z,39.60
2023-04-16T01:07:18.191Z,49.22
2023-04-16T01:09:44.721Z,46.72
2023-04-16T01:12:11.442Z,39.50
2023-04-16T01:14:38.098Z,41.45
2023-04-16T01:17:05.102Z,50.22
2023-04-16T01:19:31.655Z,80.03
2023-04-16T01:21:59.305Z,88.38
2023-04-16T01:24:25.843Z,55.88
2023-04-16T01:26:55.438Z,57.97
2023-04-16T01:29:21.975Z,75.40
2023-04-16T01:31:50.810Z,67.88
2023-04-16T01:34:31.021Z,51.33
2023-04-16T01:36:58.257Z,34.15
2023-04-16T01:39:24.803Z,30.45
2023-04-16T01:41:51.405Z,30.33
2023-04-16T01:44:17.929Z,34.25
2023-04-16T01:46:45.053Z,39.20
2023-04-16T01:49:11.930Z,59.35
2023-04-16T01:51:38.640Z,74.50
2023-04-16T01:54:09.120Z,72.40
2023-04-16T01:56:35.826Z,63.45
2023-04-16T01:59:02.481Z,95.55
2023-04-16T02:01:35.577Z,85.53
2023-04-16T02:04:02.837Z,89.18
2023-04-16T02:06:29.576Z,72.70
2023-04-16T02:08:56.213Z,72.45
2023-04-16T02:11:22.745Z,77.57
2023-04-16T02:13:50.485Z,79.22
2023-04-16T02:16:18.458Z,62.70
2023-04-16T02:19:04.555Z,70.30
2023-04-16T02:21:34.477Z,61.53
2023-04-16T02:24:01.272Z,67.45
2023-04-16T02:26:30.257Z,68.97
2023-04-16T02:29:02.228Z,77.28
2023-04-16T02:31:37.560Z,87.47
2023-04-16T02:34:05.355Z,75.75
2023-04-16T02:36:32.118Z,89.43
2023-04-16T02:38:59.545Z,83.15
2023-04-16T02:41:26.491Z,110.88
2023-04-16T02:43:53.123Z,80.80
2023-04-16T02:46:19.755Z,87.47
2023-04-16T02:48:46.514Z,85.05
2023-04-16T02:51:13.194Z,67.75
2023-04-16T02:53:39.917Z,63.72
2023-04-16T02:56:07.049Z,69.82
2023-04-16T02:58:33.904Z,74.85
2023-04-16T03:01:00.531Z,88.28
2023-04-16T03:03:27.402Z,81.95
2023-04-16T03:05:53.975Z,82.10
2023-04-16T03:08:20.744Z,71.95
2023-04-16T03:10:47.432Z,77.22
2023-04-16T03:13:14.742Z,87.57
2023-04-16T03:15:41.241Z,75.70
2023-04-16T03:18:08.040Z,62.85
2023-04-16T03:20:34.562Z,55.10
2023-04-16T03:23:01.207Z,54.90
2023-04-16T03:25:27.931Z,54.47
2023-04-16T03:27:54.491Z,53.70
2023-04-16T03:30:21.098Z,55.00
2023-04-16T03:32:47.765Z,54.97
2023-04-16T03:35:14.801Z,68.65
2023-04-16T03:37:41.910Z,51.97
2023-04-16T03:40:08.943Z,50.03
2023-04-16T03:42:35.516Z,59.97
2023-04-16T03:45:02.625Z,64.15
2023-04-16T03:47:29.793Z,61.45
2023-04-16T03:50:00.219Z,52.63
2023-04-16T03:52:28.153Z,51.03
2023-04-16T03:54:55.147Z,51.55
2023-04-16T03:57:27.383Z,53.63
2023-04-16T03:59:58.285Z,60.65
2023-04-16T04:02:27.696Z,61.03
2023-04-16T04:04:54.885Z,62.03
2023-04-16T04:07:21.508Z,61.92
2023-04-16T04:09:48.273Z,58.85
2023-04-16T04:12:15.341Z,55.10
2023-04-16T04:14:43.706Z,57.78
2023-04-16T04:17:10.494Z,58.08
2023-04-16T04:19:38.884Z,59.45
2023-04-16T04:25:17.938Z,57.38
2023-04-16T04:27:44.526Z,57.80
2023-04-16T04:30:11.709Z,61.33
2023-04-16T04:32:39.302Z,62.33
2023-04-16T04:35:06.561Z,63.60
2023-04-16T04:37:33.366Z,71.20
2023-04-16T04:42:34.535Z,68.97
2023-04-16T04:45:01.277Z,66.65
2023-04-16T04:47:30.855Z,68.10
2023-04-16T04:49:57.587Z,68.00
2023-04-16T04:52:24.940Z,68.22
2023-04-16T04:54:52.493Z,70.30
2023-04-16T04:57:19.630Z,63.33
2023-04-16T04:59:46.404Z,64.22
2023-04-16T05:02:14.362Z,60.60
2023-04-16T05:04:40.955Z,61.10
2023-04-16T05:07:07.562Z,62.65
2023-04-16T05:09:34.131Z,61.88
2023-04-16T05:12:00.805Z,62.08
2023-04-16T05:14:27.303Z,61.05
2023-04-16T05:16:54.129Z,63.97
2023-04-16T05:19:21.140Z,63.97
2023-04-16T05:21:47.674Z,64.68
2023-04-16T05:24:15.080Z,60.65
2023-04-16T05:26:41.801Z,62.25
2023-04-16T05:29:08.499Z,65.30
2023-04-16T05:31:35.444Z,64.10
2023-04-16T05:34:01.996Z,66.45
2023-04-16T05:36:28.520Z,72.15
2023-04-16T05:38:55.081Z,62.58
2023-04-16T05:41:21.629Z,65.35
2023-04-16T05:43:48.237Z,66.10
2023-04-16T05:46:14.889Z,74.25
2023-04-16T05:48:41.410Z,69.57
2023-04-16T05:51:08.081Z,67.18
2023-04-16T05:53:34.628Z,65.65
2023-04-16T05:56:01.241Z,60.35
2023-04-16T05:58:27.722Z,68.47
2023-04-16T06:00:54.546Z,66.53
2023-04-16T06:03:21.253Z,67.50
2023-04-16T06:05:47.942Z,69.20
2023-04-16T06:08:14.517Z,70.75
2023-04-16T06:10:41.136Z,70.13
2023-04-16T06:13:07.633Z,72.88
2023-04-16T06:15:34.251Z,69.07
2023-04-16T06:18:01.087Z,69.82
2023-04-16T06:20:27.937Z,74.30
2023-04-16T06:22:55.888Z,68.63
2023-04-16T06:25:22.495Z,68.55
2023-04-16T06:27:49.113Z,63.80
2023-04-16T06:30:16.588Z,67.32
2023-04-16T06:32:44.230Z,58.45
2023-04-16T06:35:10.951Z,61.03
2023-04-16T06:37:37.531Z,59.88
2023-04-16T06:40:04.858Z,64.32
2023-04-16T06:42:31.541Z,63.75
2023-04-16T06:44:58.259Z,52.95
2023-04-16T06:47:24.958Z,58.78
2023-04-16T06:49:51.533Z,63.30
2023-04-16T06:52:18.138Z,58.58
2023-04-16T06:54:44.735Z,57.05
2023-04-16T06:57:11.371Z,53.40
2023-04-16T06:59:38.806Z,53.28
2023-04-16T07:02:05.745Z,50.78
2023-04-16T07:04:35.837Z,46.95
2023-04-16T07:07:02.400Z,46.90
2023-04-16T07:09:28.901Z,43.83
2023-04-16T07:11:55.577Z,42.65
2023-04-16T07:14:22.149Z,34.53
2023-04-16T07:16:48.735Z,30.92
2023-04-16T07:19:15.563Z,29.38
2023-04-16T07:21:43.681Z,30.05
2023-04-16T07:24:14.110Z,29.48
2023-04-16T07:26:40.971Z,29.52
2023-04-16T07:29:07.694Z,29.13
2023-04-16T07:31:34.396Z,29.65
2023-04-16T07:34:01.129Z,27.73
2023-04-16T07:36:28.353Z,28.55
2023-04-16T07:38:56.013Z,29.98
2023-04-16T07:41:22.674Z,25.90
2023-04-16T07:43:49.373Z,28.70
2023-04-16T07:46:16.246Z,25.58
2023-04-16T07:48:43.097Z,26.40
2023-04-16T07:51:09.879Z,25.13
2023-04-16T07:53:36.386Z,23.13
2023-04-16T07:56:02.947Z,22.15
2023-04-16T07:58:29.486Z,24.73
2023-04-16T08:00:56.221Z,24.13
2023-04-16T08:03:23.111Z,20.70
2023-04-16T08:05:50.090Z,22.80
2023-04-16T08:08:16.784Z,20.38
2023-04-16T08:10:43.335Z,19.92
2023-04-16T08:13:09.947Z,18.80
2023-04-16T08:15:36.875Z,18.85
2023-04-16T08:18:05.849Z,16.92
2023-04-16T08:20:35.768Z,18.75
2023-04-16T08:23:02.256Z,16.70
2023-04-16T08:25:28.863Z,17.65
2023-04-16T08:27:55.546Z,14.77
2023-04-16T08:30:22.261Z,12.73
2023-04-16T08:32:50.126Z,11.23
2023-04-16T08:35:17.512Z,10.77
2023-04-16T08:37:44.023Z,9.50
2023-04-16T08:40:11.033Z,10.43
2023-04-16T08:42:55.932Z,8.57
2023-04-16T08:45:23.143Z,9.93
2023-04-16T08:47:51.865Z,5.68
2023-04-16T08:50:23.211Z,5.72
2023-04-16T08:53:11.303Z,7.47
2023-04-16T08:55:40.702Z,8.10
2023-04-16T08:58:22.424Z,7.93
2023-04-16T09:00:49.555Z,7.45
2023-04-16T09:03:16.566Z,6.93
2023-04-16T09:05:43.961Z,6.22
2023-04-16T09:08:10.595Z,7.15
2023-04-16T09:10:37.155Z,5.70
2023-04-16T09:13:03.808Z,6.72
2023-04-16T09:15:30.721Z,5.03
2023-04-16T09:17:57.642Z,6.57
2023-04-16T09:20:24.737Z,7.35
2023-04-16T09:22:51.532Z,7.13
2023-04-16T09:25:22.040Z,6.82
2023-04-16T09:27:52.094Z,5.88
2023-04-16T09:30:27.133Z,7.05
2023-04-16T09:33:23.548Z,6.47
2023-04-16T09:35:53.763Z,6.47
2023-04-16T09:38:21.094Z,7.20
2023-04-16T09:40:47.847Z,6.25
2023-04-16T09:43:18.330Z,6.45
2023-04-16T09:45:52.921Z,7.28
2023-04-16T09:48:28.446Z,5.93
2023-04-16T09:50:56.261Z,6.25
2023-04-16T09:53:30.330Z,6.20
2023-04-16T09:56:02.376Z,6.80
2023-04-16T09:58:29.665Z,6.22
2023-04-16T10:01:06.876Z,6.68
2023-04-16T10:03:35.175Z,5.85
2023-04-16T10:06:14.926Z,6.68
2023-04-16T10:08:53.092Z,6.18
2023-04-16T10:11:20.887Z,5.03
2023-04-16T10:13:47.451Z,5.63
2023-04-16T10:16:14.170Z,5.68
2023-04-16T10:18:42.711Z,5.28
2023-04-16T10:21:16.322Z,5.68
2023-04-16T10:23:44.076Z,5.88
2023-04-16T10:26:11.106Z,5.03
2023-04-16T10:28:38.200Z,4.93
2023-04-16T10:31:08.119Z,4.68
2023-04-16T10:33:36.850Z,4.45
2023-04-16T10:36:16.193Z,2.95
2023-04-16T10:38:53.069Z,2.47
2023-04-16T10:41:20.658Z,3.22
2023-04-16T10:43:52.550Z,3.10
2023-04-16T10:46:19.753Z,4.40
2023-04-16T10:48:55.737Z,2.78
2023-04-16T10:51:27.790Z,4.10
2023-04-16T10:53:56.241Z,4.13
2023-04-16T10:56:25.299Z,3.42
2023-04-16T10:58:54.903Z,4.00
2023-04-16T11:01:31.367Z,3.78
2023-04-16T11:04:19.546Z,4.43
2023-04-16T11:07:07.598Z,3.53
2023-04-16T11:09:59.294Z,3.47
2023-04-16T11:12:40.395Z,3.55
2023-04-16T11:15:08.529Z,4.03
2023-04-16T11:17:48.706Z,3.30
2023-04-16T11:20:20.506Z,3.47
2023-04-16T11:22:49.169Z,4.28
2023-04-16T11:25:22.895Z,3.53
2023-04-16T11:27:51.193Z,3.97
2023-04-16T11:30:18.983Z,3.22
2023-04-16T11:32:45.988Z,3.40
2023-04-16T11:35:19.399Z,3.15
2023-04-16T11:37:48.309Z,3.65
2023-04-16T11:42:31.497Z,3.55
2023-04-16T11:45:00.877Z,2.70
2023-04-16T11:47:27.617Z,3.33
2023-04-16T11:49:54.298Z,3.22
2023-04-16T11:52:31.966Z,3.45
2023-04-16T11:54:59.472Z,2.20
2023-04-16T11:57:31.241Z,2.70
2023-04-16T12:00:02.012Z,3.33
2023-04-16T12:02:53.774Z,3.20
2023-04-16T12:05:31.690Z,3.25
2023-04-16T12:08:03.237Z,3.08
2023-04-16T12:10:36.574Z,3.35
2023-04-16T12:13:15.083Z,2.42
2023-04-16T12:15:52.307Z,3.75
2023-04-16T12:18:22.366Z,2.95
2023-04-16T12:20:51.045Z,2.63
2023-04-16T12:23:26.825Z,2.45
2023-04-16T12:25:54.310Z,2.40
2023-04-16T12:28:35.085Z,6.85
2023-04-16T12:31:02.841Z,2.38
2023-04-16T12:33:29.638Z,2.47
2023-04-16T12:35:56.897Z,3.05
2023-04-16T12:38:24.715Z,2.28
2023-04-16T12:40:52.141Z,2.38
2023-04-16T12:43:19.846Z,2.25
2023-04-16T12:45:46.542Z,2.67
2023-04-16T12:48:16.037Z,2.42
2023-04-16T12:50:44.246Z,66.85
2023-04-16T12:53:11.726Z,2.80
2023-04-16T12:55:40.877Z,2.45
2023-04-16T12:58:09.813Z,2.85
2023-04-16T13:00:37.769Z,2.33
2023-04-16T13:03:04.736Z,2.50
2023-04-16T13:05:31.493Z,2.90
2023-04-16T13:07:58.065Z,2.38
2023-04-16T13:10:24.942Z,2.20
2023-04-16T13:12:51.467Z,2.35
2023-04-16T13:15:20.879Z,1.95
2023-04-16T13:17:47.469Z,2.00
2023-04-16T13:20:14.051Z,2.70
2023-04-16T13:22:40.765Z,2.00
2023-04-16T13:25:08.120Z,2.65
2023-04-16T13:27:34.666Z,2.47
2023-04-16T13:30:01.316Z,2.10
2023-04-16T13:32:27.936Z,2.47
2023-04-16T13:34:54.604Z,2.22
2023-04-16T13:37:21.102Z,2.70
2023-04-16T13:39:47.629Z,2.15
2023-04-16T13:42:14.240Z,2.00
2023-04-16T13:44:41.040Z,2.10
2023-04-16T13:47:08.006Z,2.58
2023-04-16T13:49:36.011Z,2.35
2023-04-16T13:52:03.158Z,2.47
2023-04-16T13:54:29.823Z,3.83
2023-04-16T13:56:56.735Z,4.03
2023-04-16T13:59:23.620Z,3.75
2023-04-16T14:01:51.038Z,3.85
2023-04-16T14:04:17.878Z,4.85
2023-04-16T14:06:44.465Z,3.10
2023-04-16T14:09:12.063Z,3.42
2023-04-16T14:11:38.998Z,3.45
2023-04-16T14:14:05.999Z,3.65
2023-04-16T14:16:32.788Z,3.13
2023-04-16T14:18:59.780Z,3.15
2023-04-16T14:21:27.012Z,3.53
2023-04-16T14:23:56.915Z,4.15
2023-04-16T14:26:23.519Z,4.07
2023-04-16T14:28:50.997Z,3.65
2023-04-16T14:31:18.103Z,3.60
2023-04-16T14:33:46.910Z,3.75
2023-04-16T14:36:13.642Z,4.35
2023-04-16T14:38:40.792Z,4.22
2023-04-16T14:41:07.392Z,5.15
2023-04-16T14:43:34.294Z,3.35
2023-04-16T14:46:00.845Z,3.80
2023-04-16T14:48:27.438Z,4.53
2023-04-16T14:50:54.004Z,3.92
2023-04-16T14:53:20.873Z,3.50
2023-04-16T14:55:47.734Z,3.40
2023-04-16T14:58:14.366Z,3.88
2023-04-16T15:00:41.362Z,4.10
2023-04-16T15:03:08.226Z,4.10
2023-04-16T15:05:35.991Z,3.70
2023-04-16T15:08:02.797Z,4.28
2023-04-16T15:10:29.966Z,5.43
2023-04-16T15:12:56.852Z,4.50
2023-04-16T15:15:23.436Z,4.30
2023-04-16T15:17:51.052Z,4.18
2023-04-16T15:20:18.057Z,4.15
2023-04-16T15:22:46.827Z,4.38
2023-04-16T15:25:14.485Z,4.75
2023-04-16T15:27:41.240Z,6.55
2023-04-16T15:30:08.622Z,6.03
2023-04-16T15:32:35.579Z,8.40
2023-04-16T15:35:03.503Z,6.85
2023-04-16T15:37:30.238Z,5.05
2023-04-16T15:39:57.054Z,5.43
2023-04-16T15:42:23.933Z,4.82
2023-04-16T15:44:50.510Z,5.72
2023-04-16T15:47:17.161Z,5.50
2023-04-16T15:49:43.650Z,6.82
2023-04-16T15:52:11.928Z,7.25
2023-04-16T15:54:38.625Z,6.10
2023-04-16T15:57:05.202Z,5.13
2023-04-16T15:59:32.596Z,5.13
2023-04-16T16:01:59.551Z,6.63
2023-04-16T16:04:28.055Z,5.57
2023-04-16T16:06:54.897Z,8.45
2023-04-16T16:09:27.181Z,7.47
2023-04-16T16:11:54.354Z,6.68
2023-04-16T16:14:22.191Z,6.53
2023-04-16T16:16:49.476Z,5.43
2023-04-16T16:19:16.652Z,6.10
2023-04-16T16:21:43.424Z,7.20
2023-04-16T16:24:09.953Z,8.00
2023-04-16T16:26:36.632Z,8.07
2023-04-16T16:29:03.645Z,7.63
2023-04-16T16:31:30.611Z,6.88
2023-04-16T16:33:57.235Z,7.57
2023-04-16T16:36:23.894Z,6.75
2023-04-16T16:38:50.575Z,8.23
2023-04-16T16:41:17.308Z,7.80
2023-04-16T16:43:43.815Z,8.85
2023-04-16T16:46:10.951Z,7.63
2023-04-16T16:48:37.532Z,8.45
2023-04-16T16:51:04.177Z,7.72
2023-04-16T16:53:30.781Z,8.02
2023-04-16T16:55:57.351Z,8.30
2023-04-16T16:58:23.926Z,8.20
2023-04-16T17:00:50.850Z,10.48
2023-04-16T17:03:18.507Z,9.43
2023-04-16T17:05:47.338Z,8.82
2023-04-16T17:08:14.956Z,10.85
2023-04-16T17:10:43.829Z,10.73
2023-04-16T17:13:10.492Z,9.43
2023-04-16T17:15:37.313Z,10.23
2023-04-16T17:18:04.028Z,11.18
2023-04-16T17:20:30.723Z,11.55
2023-04-16T17:22:57.367Z,11.85
2023-04-16T17:25:23.955Z,14.48
2023-04-16T17:27:50.530Z,12.85
2023-04-16T17:30:17.432Z,12.52
2023-04-16T17:32:45.073Z,12.52
2023-04-16T17:35:16.781Z,12.68
2023-04-16T17:37:43.340Z,12.93
2023-04-16T17:40:10.222Z,13.25
2023-04-16T17:42:37.137Z,14.27
2023-04-16T17:45:03.957Z,15.45
2023-04-16T17:47:31.413Z,17.25
2023-04-16T17:49:58.152Z,23.52
2023-04-16T17:52:24.795Z,25.17
2023-04-16T17:54:53.090Z,21.58
2023-04-16T17:57:19.680Z,17.60
2023-04-16T17:59:46.326Z,18.38
2023-04-16T18:02:13.018Z,17.25
2023-04-16T18:04:39.804Z,15.93
2023-04-16T18:07:07.294Z,15.40
2023-04-16T18:09:33.993Z,15.32
2023-04-16T18:12:01.502Z,15.35
2023-04-16T18:14:29.205Z,15.13
2023-04-16T18:16:55.923Z,16.88
2023-04-16T18:19:22.768Z,16.05
2023-04-16T18:21:49.456Z,17.23
2023-04-16T18:24:16.069Z,15.48
2023-04-16T18:26:46.056Z,15.95
2023-04-16T18:29:14.413Z,17.33
2023-04-16T18:31:41.306Z,17.20
2023-04-16T18:34:08.157Z,16.15
2023-04-16T18:36:36.518Z,16.30
2023-04-16T18:39:03.291Z,18.08
2023-04-16T18:41:32.516Z,17.75
2023-04-16T18:43:59.319Z,18.30
2023-04-16T18:46:27.163Z,19.00
2023-04-16T18:48:56.811Z,19.67
2023-04-16T18:51:24.228Z,17.73
2023-04-16T18:53:51.276Z,19.17
2023-04-16T18:56:20.940Z,19.85
2023-04-16T18:58:48.315Z,19.60
2023-04-16T19:01:15.039Z,18.20
2023-04-16T19:03:44.435Z,19.33
2023-04-16T19:06:11.066Z,21.88
2023-04-16T19:08:40.130Z,20.92
2023-04-16T19:11:10.827Z,19.63
2023-04-16T19:13:38.644Z,20.52
2023-04-16T19:16:11.140Z,20.48
2023-04-16T19:18:40.322Z,20.27
2023-04-16T19:21:11.090Z,20.73
2023-04-16T19:23:39.037Z,22.95
2023-04-16T19:26:05.682Z,20.27
2023-04-16T19:28:40.527Z,20.70
2023-04-16T19:31:08.652Z,20.38
2023-04-16T19:33:36.131Z,17.55
2023-04-16T19:36:03.183Z,17.85
2023-04-16T19:38:31.960Z,17.10
2023-04-16T19:40:59.393Z,18.08
2023-04-16T19:43:27.581Z,17.50
2023-04-16T19:45:55.134Z,19.45
2023-04-16T19:48:22.517Z,19.05
2023-04-16T19:50:49.830Z,19.67
2023-04-16T19:53:19.276Z,18.27
2023-04-16T19:55:46.461Z,17.85
2023-04-16T19:58:15.644Z,18.48
2023-04-16T20:00:42.575Z,18.95
2023-04-16T20:03:09.656Z,17.27
2023-04-16T20:05:37.384Z,19.27
2023-04-16T20:08:04.404Z,16.23
2023-04-16T20:10:31.614Z,18.40
2023-04-16T20:12:58.464Z,17.77
2023-04-16T20:15:25.206Z,17.00
2023-04-16T20:17:54.630Z,18.17
2023-04-16T20:20:23.568Z,17.70
2023-04-16T20:22:50.655Z,17.75
2023-04-16T20:25:21.560Z,18.63
2023-04-16T20:27:48.486Z,18.63
2023-04-16T20:30:15.264Z,16.58
2023-04-16T20:32:42.075Z,17.65
2023-04-16T20:35:10.937Z,17.40
2023-04-16T20:37:38.565Z,18.55
2023-04-16T20:40:07.808Z,16.13
2023-04-16T20:42:34.666Z,16.67
2023-04-16T20:45:01.330Z,15.38
2023-04-16T20:47:28.223Z,17.80
2023-04-16T20:49:55.176Z,16.60
2023-04-16T20:52:21.737Z,15.73
2023-04-16T20:54:48.242Z,16.23
2023-04-16T20:57:14.995Z,15.25
2023-04-16T20:59:41.536Z,14.70
2023-04-16T21:02:08.319Z,15.95
2023-04-16T21:04:35.058Z,17.17
2023-04-16T21:07:04.117Z,15.00
2023-04-16T21:09:31.456Z,15.15
2023-04-16T21:11:58.163Z,17.85
2023-04-16T21:14:24.681Z,17.45
2023-04-16T21:16:51.794Z,16.73
2023-04-16T21:19:22.410Z,16.83
2023-04-16T21:21:48.999Z,15.73
2023-04-16T21:24:15.783Z,16.65
2023-04-16T21:26:42.365Z,16.00
2023-04-16T21:29:08.999Z,16.90
2023-04-16T21:31:35.639Z,16.92
2023-04-16T21:34:02.287Z,17.75
2023-04-16T21:36:33.811Z,16.08
2023-04-16T21:39:00.484Z,17.10
2023-04-16T21:41:27.112Z,18.10
2023-04-16T21:43:53.826Z,15.13
2023-04-16T21:46:20.884Z,19.50
2023-04-16T21:48:48.500Z,19.02
2023-04-16T21:51:15.694Z,17.63
2023-04-16T21:53:42.302Z,16.88
2023-04-16T21:56:08.871Z,19.80
2023-04-16T21:58:35.613Z,18.98
2023-04-16T22:01:02.278Z,19.30
2023-04-16T22:03:30.581Z,19.95
2023-04-16T22:06:00.910Z,18.23
2023-04-16T22:08:28.901Z,18.35
2023-04-16T22:10:59.555Z,20.20
2023-04-16T22:13:26.984Z,18.77
2023-04-16T22:15:54.926Z,18.05
2023-04-16T22:18:27.021Z,18.58
2023-04-16T22:23:25.711Z,17.90
2023-04-16T22:25:54.881Z,17.60
2023-04-16T22:28:21.597Z,19.02
2023-04-16T22:30:48.268Z,17.33
2023-04-16T22:33:15.249Z,19.42
2023-04-16T22:35:42.037Z,19.52
2023-04-16T22:38:08.574Z,17.33
2023-04-16T22:40:35.743Z,19.35
2023-04-16T22:43:02.317Z,19.10
2023-04-16T22:45:29.275Z,17.48
2023-04-16T22:47:55.870Z,18.52
2023-04-16T22:50:23.150Z,18.25
2023-04-16T22:52:49.689Z,17.83
2023-04-16T22:55:16.563Z,17.10
2023-04-16T22:57:43.201Z,17.52
2023-04-16T23:00:16.526Z,17.95
2023-04-16T23:02:44.191Z,17.58
2023-04-16T23:05:12.784Z,20.40
2023-04-16T23:07:39.493Z,20.05
2023-04-16T23:10:08.222Z,17.25
2023-04-16T23:12:37.151Z,18.70
2023-04-16T23:15:04.784Z,17.88
2023-04-16T23:17:31.465Z,19.65
2023-04-16T23:19:58.122Z,18.83
2023-04-16T23:22:24.863Z,17.33
2023-04-16T23:24:52.823Z,18.60
2023-04-16T23:27:19.379Z,17.33
2023-04-16T23:29:46.033Z,18.17
2023-04-16T23:32:12.653Z,17.65
2023-04-16T23:34:39.206Z,18.27
2023-04-16T23:37:05.915Z,18.30
2023-04-16T23:39:32.496Z,17.25
2023-04-16T23:41:59.596Z,16.63
2023-04-16T23:44:26.209Z,18.77
2023-04-16T23:46:52.875Z,16.90
2023-04-16T23:49:19.398Z,19.20
2023-04-16T23:51:46.044Z,17.05
2023-04-16T23:54:12.705Z,17.88
2023-04-16T23:56:39.277Z,18.13
2023-04-16T23:59:06.119Z,16.77
